sensor_id;sensor_type;location;lat;lon;timestamp;temperature;humidity
25668;DHT22;18003;-33.830;151.202;2023-06-26T00:01:20;11.90;99.90
25668;DHT22;18003;-33.830;151.202;2023-06-26T00:03:50;12.00;99.90
25668;DHT22;18003;-33.830;151.202;2023-06-26T00:06:21;12.00;99.90
25668;DHT22;18003;-33.830;151.202;2023-06-26T00:08:55;12.10;99.90
25668;DHT22;18003;-33.830;151.202;2023-06-26T00:11:26;12.20;99.90
25668;DHT22;18003;-33.830;151.202;2023-06-26T00:13:57;12.20;99.90
25668;DHT22;18003;-33.830;151.202;2023-06-26T00:16:28;12.30;99.90
25668;DHT22;18003;-33.830;151.202;2023-06-26T00:18:59;12.40;99.90
25668;DHT22;18003;-33.830;151.202;2023-06-26T00:21:29;12.40;99.90
25668;DHT22;18003;-33.830;151.202;2023-06-26T00:23:59;12.50;99.80
25668;DHT22;18003;-33.830;151.202;2023-06-26T00:26:29;12.50;99.90
25668;DHT22;18003;-33.830;151.202;2023-06-26T00:28:59;12.50;99.70
25668;DHT22;18003;-33.830;151.202;2023-06-26T00:31:29;12.40;99.60
25668;DHT22;18003;-33.830;151.202;2023-06-26T00:34:00;12.50;99.80
25668;DHT22;18003;-33.830;151.202;2023-06-26T00:36:30;12.40;99.90
25668;DHT22;18003;-33.830;151.202;2023-06-26T00:39:00;12.50;99.90
25668;DHT22;18003;-33.830;151.202;2023-06-26T00:41:31;12.40;99.70
25668;DHT22;18003;-33.830;151.202;2023-06-26T00:44:01;12.40;99.60
25668;DHT22;18003;-33.830;151.202;2023-06-26T00:46:32;12.50;99.80
25668;DHT22;18003;-33.830;151.202;2023-06-26T00:49:03;12.50;99.90
25668;DHT22;18003;-33.830;151.202;2023-06-26T00:51:33;12.50;99.70
25668;DHT22;18003;-33.830;151.202;2023-06-26T00:54:04;12.50;99.70
25668;DHT22;18003;-33.830;151.202;2023-06-26T00:56:35;12.50;99.80
25668;DHT22;18003;-33.830;151.202;2023-06-26T00:59:05;12.50;99.40
25668;DHT22;18003;-33.830;151.202;2023-06-26T01:01:35;12.50;99.50
25668;DHT22;18003;-33.830;151.202;2023-06-26T01:04:06;12.70;99.50
25668;DHT22;18003;-33.830;151.202;2023-06-26T01:06:36;12.80;99.40
25668;DHT22;18003;-33.830;151.202;2023-06-26T01:09:07;12.80;99.20
25668;DHT22;18003;-33.830;151.202;2023-06-26T01:11:37;12.80;99.30
25668;DHT22;18003;-33.830;151.202;2023-06-26T01:14:08;12.80;99.40
25668;DHT22;18003;-33.830;151.202;2023-06-26T01:16:39;12.80;99.90
25668;DHT22;18003;-33.830;151.202;2023-06-26T01:19:12;12.70;99.70
25668;DHT22;18003;-33.830;151.202;2023-06-26T01:21:43;12.70;99.70
25668;DHT22;18003;-33.830;151.202;2023-06-26T01:24:12;12.60;99.40
25668;DHT22;18003;-33.830;151.202;2023-06-26T01:26:45;12.60;99.50
25668;DHT22;18003;-33.830;151.202;2023-06-26T01:29:16;12.70;99.80
25668;DHT22;18003;-33.830;151.202;2023-06-26T01:31:48;12.70;99.70
25668;DHT22;18003;-33.830;151.202;2023-06-26T01:34:19;12.80;99.90
25668;DHT22;18003;-33.830;151.202;2023-06-26T01:36:50;12.80;99.40
25668;DHT22;18003;-33.830;151.202;2023-06-26T01:39:21;12.80;99.30
25668;DHT22;18003;-33.830;151.202;2023-06-26T01:42:00;13.10;98.80
25668;DHT22;18003;-33.830;151.202;2023-06-26T01:44:30;13.30;98.40
25668;DHT22;18003;-33.830;151.202;2023-06-26T01:47:05;13.50;98.20
25668;DHT22;18003;-33.830;151.202;2023-06-26T01:49:56;13.50;98.10
25668;DHT22;18003;-33.830;151.202;2023-06-26T01:52:46;13.60;97.80
25668;DHT22;18003;-33.830;151.202;2023-06-26T01:58:00;13.70;97.70
25668;DHT22;18003;-33.830;151.202;2023-06-26T02:00:31;13.80;97.60
25668;DHT22;18003;-33.830;151.202;2023-06-26T02:03:01;13.80;97.50
25668;DHT22;18003;-33.830;151.202;2023-06-26T02:05:33;13.80;97.50
25668;DHT22;18003;-33.830;151.202;2023-06-26T02:08:03;13.90;97.50
25668;DHT22;18003;-33.830;151.202;2023-06-26T02:10:33;13.90;97.80
25668;DHT22;18003;-33.830;151.202;2023-06-26T02:13:03;13.90;97.60
25668;DHT22;18003;-33.830;151.202;2023-06-26T02:15:33;13.90;97.50
25668;DHT22;18003;-33.830;151.202;2023-06-26T02:18:04;14.00;97.50
25668;DHT22;18003;-33.830;151.202;2023-06-26T02:20:34;14.00;97.50
25668;DHT22;18003;-33.830;151.202;2023-06-26T02:23:04;14.10;97.40
25668;DHT22;18003;-33.830;151.202;2023-06-26T02:25:36;14.10;97.20
25668;DHT22;18003;-33.830;151.202;2023-06-26T02:28:07;14.10;97.40
25668;DHT22;18003;-33.830;151.202;2023-06-26T02:30:38;14.10;97.10
25668;DHT22;18003;-33.830;151.202;2023-06-26T02:33:08;14.10;97.10
25668;DHT22;18003;-33.830;151.202;2023-06-26T02:35:38;14.10;97.20
25668;DHT22;18003;-33.830;151.202;2023-06-26T02:38:08;14.10;97.30
25668;DHT22;18003;-33.830;151.202;2023-06-26T02:40:38;14.20;97.20
25668;DHT22;18003;-33.830;151.202;2023-06-26T02:43:09;14.20;97.10
25668;DHT22;18003;-33.830;151.202;2023-06-26T02:45:40;14.20;97.00
25668;DHT22;18003;-33.830;151.202;2023-06-26T02:48:10;14.20;97.10
25668;DHT22;18003;-33.830;151.202;2023-06-26T02:50:41;14.30;97.00
25668;DHT22;18003;-33.830;151.202;2023-06-26T02:53:12;14.30;96.90
25668;DHT22;18003;-33.830;151.202;2023-06-26T02:55:42;14.30;96.90
25668;DHT22;18003;-33.830;151.202;2023-06-26T02:58:12;14.30;96.80
25668;DHT22;18003;-33.830;151.202;2023-06-26T03:00:42;14.30;96.80
25668;DHT22;18003;-33.830;151.202;2023-06-26T03:03:12;14.30;96.70
25668;DHT22;18003;-33.830;151.202;2023-06-26T03:05:42;14.30;96.80
25668;DHT22;18003;-33.830;151.202;2023-06-26T03:08:13;14.40;96.70
25668;DHT22;18003;-33.830;151.202;2023-06-26T03:10:49;14.40;96.90
25668;DHT22;18003;-33.830;151.202;2023-06-26T03:13:20;14.40;96.80
25668;DHT22;18003;-33.830;151.202;2023-06-26T03:15:50;14.40;96.80
25668;DHT22;18003;-33.830;151.202;2023-06-26T03:18:27;14.40;96.90
25668;DHT22;18003;-33.830;151.202;2023-06-26T03:21:01;14.50;96.80
25668;DHT22;18003;-33.830;151.202;2023-06-26T03:23:30;14.50;96.90
25668;DHT22;18003;-33.830;151.202;2023-06-26T03:26:00;14.40;96.80
25668;DHT22;18003;-33.830;151.202;2023-06-26T03:28:30;14.40;96.70
25668;DHT22;18003;-33.830;151.202;2023-06-26T03:31:00;14.50;96.90
25668;DHT22;18003;-33.830;151.202;2023-06-26T03:33:30;14.50;96.80
25668;DHT22;18003;-33.830;151.202;2023-06-26T03:36:00;14.50;96.80
25668;DHT22;18003;-33.830;151.202;2023-06-26T03:38:33;14.50;96.90
25668;DHT22;18003;-33.830;151.202;2023-06-26T03:41:03;14.50;96.90
25668;DHT22;18003;-33.830;151.202;2023-06-26T03:43:33;14.50;96.80
25668;DHT22;18003;-33.830;151.202;2023-06-26T03:46:03;14.60;96.70
25668;DHT22;18003;-33.830;151.202;2023-06-26T03:48:33;14.60;96.70
25668;DHT22;18003;-33.830;151.202;2023-06-26T03:51:03;14.60;96.40
25668;DHT22;18003;-33.830;151.202;2023-06-26T03:53:35;14.60;96.50
25668;DHT22;18003;-33.830;151.202;2023-06-26T03:56:05;14.60;96.30
25668;DHT22;18003;-33.830;151.202;2023-06-26T03:58:35;14.60;96.40
25668;DHT22;18003;-33.830;151.202;2023-06-26T04:03:39;14.60;96.50
25668;DHT22;18003;-33.830;151.202;2023-06-26T04:06:09;14.60;96.10
25668;DHT22;18003;-33.830;151.202;2023-06-26T04:08:41;14.60;96.00
25668;DHT22;18003;-33.830;151.202;2023-06-26T04:11:29;14.60;96.20
25668;DHT22;18003;-33.830;151.202;2023-06-26T04:13:59;14.60;96.10
25668;DHT22;18003;-33.830;151.202;2023-06-26T04:16:34;14.60;96.20
25668;DHT22;18003;-33.830;151.202;2023-06-26T04:19:00;14.60;96.60
25668;DHT22;18003;-33.830;151.202;2023-06-26T04:21:32;14.70;96.30
25668;DHT22;18003;-33.830;151.202;2023-06-26T04:24:02;14.60;96.00
25668;DHT22;18003;-33.830;151.202;2023-06-26T04:26:33;14.70;96.10
25668;DHT22;18003;-33.830;151.202;2023-06-26T04:29:03;14.60;96.10
25668;DHT22;18003;-33.830;151.202;2023-06-26T04:31:35;14.60;96.20
25668;DHT22;18003;-33.830;151.202;2023-06-26T04:34:05;14.70;96.10
25668;DHT22;18003;-33.830;151.202;2023-06-26T04:36:37;14.70;96.00
25668;DHT22;18003;-33.830;151.202;2023-06-26T04:39:07;14.60;96.00
25668;DHT22;18003;-33.830;151.202;2023-06-26T04:41:38;14.70;95.60
25668;DHT22;18003;-33.830;151.202;2023-06-26T04:44:08;14.70;95.60
25668;DHT22;18003;-33.830;151.202;2023-06-26T04:46:38;14.70;95.60
25668;DHT22;18003;-33.830;151.202;2023-06-26T04:49:12;14.60;96.20
25668;DHT22;18003;-33.830;151.202;2023-06-26T04:51:43;14.40;96.30
25668;DHT22;18003;-33.830;151.202;2023-06-26T04:54:13;14.30;96.90
25668;DHT22;18003;-33.830;151.202;2023-06-26T04:56:43;14.20;96.30
25668;DHT22;18003;-33.830;151.202;2023-06-26T04:59:15;14.20;96.20
25668;DHT22;18003;-33.830;151.202;2023-06-26T05:01:46;14.20;96.30
25668;DHT22;18003;-33.830;151.202;2023-06-26T05:04:19;14.20;96.80
25668;DHT22;18003;-33.830;151.202;2023-06-26T05:06:49;14.10;96.30
25668;DHT22;18003;-33.830;151.202;2023-06-26T05:09:19;14.00;96.80
25668;DHT22;18003;-33.830;151.202;2023-06-26T05:12:03;13.90;96.70
25668;DHT22;18003;-33.830;151.202;2023-06-26T05:14:31;13.80;96.70
25668;DHT22;18003;-33.830;151.202;2023-06-26T05:17:01;13.70;96.70
25668;DHT22;18003;-33.830;151.202;2023-06-26T05:19:32;13.70;96.60
25668;DHT22;18003;-33.830;151.202;2023-06-26T05:22:07;13.60;96.50
25668;DHT22;18003;-33.830;151.202;2023-06-26T05:24:39;13.60;96.80
25668;DHT22;18003;-33.830;151.202;2023-06-26T05:27:10;13.50;96.70
25668;DHT22;18003;-33.830;151.202;2023-06-26T05:29:41;13.50;97.00
25668;DHT22;18003;-33.830;151.202;2023-06-26T05:32:12;13.50;96.70
25668;DHT22;18003;-33.830;151.202;2023-06-26T05:34:45;13.50;96.80
25668;DHT22;18003;-33.830;151.202;2023-06-26T05:37:25;13.50;96.80
25668;DHT22;18003;-33.830;151.202;2023-06-26T05:39:48;13.40;97.30
25668;DHT22;18003;-33.830;151.202;2023-06-26T05:42:21;13.50;97.10
25668;DHT22;18003;-33.830;151.202;2023-06-26T05:44:51;13.60;96.90
25668;DHT22;18003;-33.830;151.202;2023-06-26T05:47:21;13.60;96.80
25668;DHT22;18003;-33.830;151.202;2023-06-26T05:49:51;13.70;96.80
25668;DHT22;18003;-33.830;151.202;2023-06-26T05:52:22;13.70;96.40
25668;DHT22;18003;-33.830;151.202;2023-06-26T05:54:53;13.70;96.50
25668;DHT22;18003;-33.830;151.202;2023-06-26T05:57:23;13.70;96.80
25668;DHT22;18003;-33.830;151.202;2023-06-26T05:59:56;13.70;97.30
25668;DHT22;18003;-33.830;151.202;2023-06-26T06:02:24;13.60;96.80
25668;DHT22;18003;-33.830;151.202;2023-06-26T06:04:54;13.50;97.30
25668;DHT22;18003;-33.830;151.202;2023-06-26T06:07:24;13.50;97.20
25668;DHT22;18003;-33.830;151.202;2023-06-26T06:09:57;13.50;97.70
25668;DHT22;18003;-33.830;151.202;2023-06-26T06:12:27;13.40;97.30
25668;DHT22;18003;-33.830;151.202;2023-06-26T06:14:57;13.50;97.60
25668;DHT22;18003;-33.830;151.202;2023-06-26T06:17:51;13.50;97.70
25668;DHT22;18003;-33.830;151.202;2023-06-26T06:20:10;13.50;97.60
25668;DHT22;18003;-33.830;151.202;2023-06-26T06:22:39;13.50;97.80
25668;DHT22;18003;-33.830;151.202;2023-06-26T06:25:10;13.50;97.50
25668;DHT22;18003;-33.830;151.202;2023-06-26T06:27:40;13.50;97.20
25668;DHT22;18003;-33.830;151.202;2023-06-26T06:30:11;13.40;97.30
25668;DHT22;18003;-33.830;151.202;2023-06-26T06:32:41;13.40;97.30
25668;DHT22;18003;-33.830;151.202;2023-06-26T06:35:11;13.40;97.30
25668;DHT22;18003;-33.830;151.202;2023-06-26T06:37:42;13.50;97.10
25668;DHT22;18003;-33.830;151.202;2023-06-26T06:40:15;13.50;96.90
25668;DHT22;18003;-33.830;151.202;2023-06-26T06:42:44;13.60;96.60
25668;DHT22;18003;-33.830;151.202;2023-06-26T06:45:18;13.80;96.30
25668;DHT22;18003;-33.830;151.202;2023-06-26T06:47:48;13.90;96.30
25668;DHT22;18003;-33.830;151.202;2023-06-26T06:50:18;14.00;96.50
25668;DHT22;18003;-33.830;151.202;2023-06-26T06:52:48;14.10;96.60
25668;DHT22;18003;-33.830;151.202;2023-06-26T06:55:18;14.20;96.00
25668;DHT22;18003;-33.830;151.202;2023-06-26T06:57:48;14.20;96.20
25668;DHT22;18003;-33.830;151.202;2023-06-26T07:00:19;14.00;96.60
25668;DHT22;18003;-33.830;151.202;2023-06-26T07:02:49;13.90;96.80
25668;DHT22;18003;-33.830;151.202;2023-06-26T07:05:19;13.80;96.90
25668;DHT22;18003;-33.830;151.202;2023-06-26T07:07:49;13.80;96.60
25668;DHT22;18003;-33.830;151.202;2023-06-26T07:10:19;13.70;96.40
25668;DHT22;18003;-33.830;151.202;2023-06-26T07:12:49;13.70;96.60
25668;DHT22;18003;-33.830;151.202;2023-06-26T07:15:19;13.70;96.10
25668;DHT22;18003;-33.830;151.202;2023-06-26T07:17:49;13.60;96.60
25668;DHT22;18003;-33.830;151.202;2023-06-26T07:20:21;13.50;96.40
25668;DHT22;18003;-33.830;151.202;2023-06-26T07:22:51;13.30;96.30
25668;DHT22;18003;-33.830;151.202;2023-06-26T07:25:21;13.10;96.90
25668;DHT22;18003;-33.830;151.202;2023-06-26T07:27:51;13.10;96.70
25668;DHT22;18003;-33.830;151.202;2023-06-26T07:30:21;13.00;96.80
25668;DHT22;18003;-33.830;151.202;2023-06-26T07:32:52;13.10;96.90
25668;DHT22;18003;-33.830;151.202;2023-06-26T07:35:27;13.00;96.90
25668;DHT22;18003;-33.830;151.202;2023-06-26T07:40:22;13.00;97.20
25668;DHT22;18003;-33.830;151.202;2023-06-26T07:42:52;13.00;97.30
25668;DHT22;18003;-33.830;151.202;2023-06-26T07:45:22;13.00;97.20
25668;DHT22;18003;-33.830;151.202;2023-06-26T07:47:52;12.90;97.30
25668;DHT22;18003;-33.830;151.202;2023-06-26T07:50:22;12.90;97.60
25668;DHT22;18003;-33.830;151.202;2023-06-26T07:52:52;12.90;97.40
25668;DHT22;18003;-33.830;151.202;2023-06-26T07:55:22;12.90;97.40
25668;DHT22;18003;-33.830;151.202;2023-06-26T07:57:52;13.00;97.20
25668;DHT22;18003;-33.830;151.202;2023-06-26T08:00:23;13.10;97.40
25668;DHT22;18003;-33.830;151.202;2023-06-26T08:02:53;13.10;96.90
25668;DHT22;18003;-33.830;151.202;2023-06-26T08:05:22;13.30;96.60
25668;DHT22;18003;-33.830;151.202;2023-06-26T08:07:52;13.30;96.50
25668;DHT22;18003;-33.830;151.202;2023-06-26T08:10:22;13.30;96.80
25668;DHT22;18003;-33.830;151.202;2023-06-26T08:12:52;13.40;97.00
25668;DHT22;18003;-33.830;151.202;2023-06-26T08:15:22;13.30;96.50
25668;DHT22;18003;-33.830;151.202;2023-06-26T08:17:52;13.40;96.80
25668;DHT22;18003;-33.830;151.202;2023-06-26T08:20:22;13.50;97.50
25668;DHT22;18003;-33.830;151.202;2023-06-26T08:22:52;13.50;97.90
25668;DHT22;18003;-33.830;151.202;2023-06-26T08:25:22;13.50;97.60
25668;DHT22;18003;-33.830;151.202;2023-06-26T08:27:52;13.40;96.80
25668;DHT22;18003;-33.830;151.202;2023-06-26T08:30:22;13.30;96.90
25668;DHT22;18003;-33.830;151.202;2023-06-26T08:32:54;13.20;97.10
25668;DHT22;18003;-33.830;151.202;2023-06-26T08:35:24;13.10;97.00
25668;DHT22;18003;-33.830;151.202;2023-06-26T08:37:54;13.10;97.00
25668;DHT22;18003;-33.830;151.202;2023-06-26T08:40:25;13.00;97.20
25668;DHT22;18003;-33.830;151.202;2023-06-26T08:42:56;13.10;97.40
25668;DHT22;18003;-33.830;151.202;2023-06-26T08:45:26;13.00;97.40
25668;DHT22;18003;-33.830;151.202;2023-06-26T08:47:58;13.00;97.70
25668;DHT22;18003;-33.830;151.202;2023-06-26T08:50:30;13.00;97.40
25668;DHT22;18003;-33.830;151.202;2023-06-26T08:53:09;13.00;97.60
25668;DHT22;18003;-33.830;151.202;2023-06-26T08:55:37;12.90;97.60
25668;DHT22;18003;-33.830;151.202;2023-06-26T08:58:08;12.90;97.70
25668;DHT22;18003;-33.830;151.202;2023-06-26T09:00:38;13.00;97.90
25668;DHT22;18003;-33.830;151.202;2023-06-26T09:03:08;13.00;98.40
25668;DHT22;18003;-33.830;151.202;2023-06-26T09:05:39;13.00;98.60
25668;DHT22;18003;-33.830;151.202;2023-06-26T09:08:09;13.10;98.50
25668;DHT22;18003;-33.830;151.202;2023-06-26T09:10:39;13.00;98.60
25668;DHT22;18003;-33.830;151.202;2023-06-26T09:13:09;13.00;99.00
25668;DHT22;18003;-33.830;151.202;2023-06-26T09:15:46;12.90;99.00
25668;DHT22;18003;-33.830;151.202;2023-06-26T09:18:17;12.90;99.00
25668;DHT22;18003;-33.830;151.202;2023-06-26T09:20:48;12.80;99.40
25668;DHT22;18003;-33.830;151.202;2023-06-26T09:23:18;12.80;99.90
25668;DHT22;18003;-33.830;151.202;2023-06-26T09:25:48;12.80;99.90
25668;DHT22;18003;-33.830;151.202;2023-06-26T09:28:19;13.30;98.30
25668;DHT22;18003;-33.830;151.202;2023-06-26T09:30:53;12.70;99.40
25668;DHT22;18003;-33.830;151.202;2023-06-26T09:33:21;12.70;99.90
25668;DHT22;18003;-33.830;151.202;2023-06-26T09:35:51;12.70;99.90
25668;DHT22;18003;-33.830;151.202;2023-06-26T09:38:21;12.60;99.90
25668;DHT22;18003;-33.830;151.202;2023-06-26T09:40:51;12.50;99.90
25668;DHT22;18003;-33.830;151.202;2023-06-26T09:43:22;12.50;99.90
25668;DHT22;18003;-33.830;151.202;2023-06-26T09:45:53;12.50;99.90
25668;DHT22;18003;-33.830;151.202;2023-06-26T09:48:23;12.50;99.90
25668;DHT22;18003;-33.830;151.202;2023-06-26T09:50:56;12.50;99.90
25668;DHT22;18003;-33.830;151.202;2023-06-26T09:53:28;12.70;99.90
25668;DHT22;18003;-33.830;151.202;2023-06-26T09:55:58;12.70;99.90
25668;DHT22;18003;-33.830;151.202;2023-06-26T09:58:29;12.50;98.00
25668;DHT22;18003;-33.830;151.202;2023-06-26T10:00:59;12.60;98.20
25668;DHT22;18003;-33.830;151.202;2023-06-26T10:03:30;12.50;98.00
25668;DHT22;18003;-33.830;151.202;2023-06-26T10:06:01;12.40;98.10
25668;DHT22;18003;-33.830;151.202;2023-06-26T10:08:32;12.40;98.20
25668;DHT22;18003;-33.830;151.202;2023-06-26T10:11:08;12.30;98.20
25668;DHT22;18003;-33.830;151.202;2023-06-26T10:13:41;12.40;98.30
25668;DHT22;18003;-33.830;151.202;2023-06-26T10:16:10;12.40;98.30
25668;DHT22;18003;-33.830;151.202;2023-06-26T10:18:54;12.30;98.40
25668;DHT22;18003;-33.830;151.202;2023-06-26T10:21:22;12.30;98.60
25668;DHT22;18003;-33.830;151.202;2023-06-26T10:24:00;12.30;98.70
25668;DHT22;18003;-33.830;151.202;2023-06-26T10:26:32;12.30;98.90
25668;DHT22;18003;-33.830;151.202;2023-06-26T10:29:04;12.30;98.90
25668;DHT22;18003;-33.830;151.202;2023-06-26T10:31:48;12.40;99.60
25668;DHT22;18003;-33.830;151.202;2023-06-26T10:34:15;12.40;99.90
25668;DHT22;18003;-33.830;151.202;2023-06-26T10:36:45;12.30;99.10
25668;DHT22;18003;-33.830;151.202;2023-06-26T10:39:18;12.40;99.20
25668;DHT22;18003;-33.830;151.202;2023-06-26T10:41:52;12.50;99.30
25668;DHT22;18003;-33.830;151.202;2023-06-26T10:44:24;12.40;99.40
25668;DHT22;18003;-33.830;151.202;2023-06-26T10:47:05;12.40;99.50
25668;DHT22;18003;-33.830;151.202;2023-06-26T10:49:36;12.30;99.60
25668;DHT22;18003;-33.830;151.202;2023-06-26T10:52:08;12.20;99.90
25668;DHT22;18003;-33.830;151.202;2023-06-26T10:54:40;12.10;99.90
25668;DHT22;18003;-33.830;151.202;2023-06-26T10:57:09;12.00;99.90
25668;DHT22;18003;-33.830;151.202;2023-06-26T10:59:46;12.00;99.90
25668;DHT22;18003;-33.830;151.202;2023-06-26T11:02:15;11.90;99.90
25668;DHT22;18003;-33.830;151.202;2023-06-26T11:04:52;11.90;99.90
25668;DHT22;18003;-33.830;151.202;2023-06-26T11:10:11;11.90;99.90
25668;DHT22;18003;-33.830;151.202;2023-06-26T11:12:43;11.80;99.90
25668;DHT22;18003;-33.830;151.202;2023-06-26T11:15:14;11.90;99.90
25668;DHT22;18003;-33.830;151.202;2023-06-26T11:17:47;11.90;99.90
25668;DHT22;18003;-33.830;151.202;2023-06-26T11:20:18;11.90;99.90
25668;DHT22;18003;-33.830;151.202;2023-06-26T11:22:49;11.80;99.90
25668;DHT22;18003;-33.830;151.202;2023-06-26T11:25:20;11.90;99.90
25668;DHT22;18003;-33.830;151.202;2023-06-26T11:27:50;11.90;99.90
25668;DHT22;18003;-33.830;151.202;2023-06-26T11:30:27;12.10;99.90
25668;DHT22;18003;-33.830;151.202;2023-06-26T11:33:07;12.30;99.90
25668;DHT22;18003;-33.830;151.202;2023-06-26T11:35:37;12.50;99.90
25668;DHT22;18003;-33.830;151.202;2023-06-26T11:38:08;12.50;99.90
25668;DHT22;18003;-33.830;151.202;2023-06-26T11:40:39;12.70;99.90
25668;DHT22;18003;-33.830;151.202;2023-06-26T11:43:10;12.70;99.90
25668;DHT22;18003;-33.830;151.202;2023-06-26T11:45:42;12.70;99.90
25668;DHT22;18003;-33.830;151.202;2023-06-26T11:48:13;12.70;99.90
25668;DHT22;18003;-33.830;151.202;2023-06-26T11:50:49;12.80;99.90
25668;DHT22;18003;-33.830;151.202;2023-06-26T11:53:16;12.80;99.90
25668;DHT22;18003;-33.830;151.202;2023-06-26T11:55:46;12.80;99.90
25668;DHT22;18003;-33.830;151.202;2023-06-26T11:58:19;12.80;99.90
25668;DHT22;18003;-33.830;151.202;2023-06-26T12:00:49;12.80;99.90
25668;DHT22;18003;-33.830;151.202;2023-06-26T12:03:20;12.90;99.90
25668;DHT22;18003;-33.830;151.202;2023-06-26T12:05:50;12.90;99.90
25668;DHT22;18003;-33.830;151.202;2023-06-26T12:08:20;12.90;99.90
25668;DHT22;18003;-33.830;151.202;2023-06-26T12:10:51;12.90;99.90
25668;DHT22;18003;-33.830;151.202;2023-06-26T12:13:21;12.90;99.90
25668;DHT22;18003;-33.830;151.202;2023-06-26T12:15:50;12.90;99.90
25668;DHT22;18003;-33.830;151.202;2023-06-26T12:18:20;12.90;99.90
25668;DHT22;18003;-33.830;151.202;2023-06-26T12:20:51;13.00;99.90
25668;DHT22;18003;-33.830;151.202;2023-06-26T12:23:21;13.00;99.90
25668;DHT22;18003;-33.830;151.202;2023-06-26T12:25:51;13.00;99.90
25668;DHT22;18003;-33.830;151.202;2023-06-26T12:28:21;13.00;99.90
25668;DHT22;18003;-33.830;151.202;2023-06-26T12:33:39;13.00;99.90
25668;DHT22;18003;-33.830;151.202;2023-06-26T12:36:15;13.10;99.90
25668;DHT22;18003;-33.830;151.202;2023-06-26T12:38:46;13.00;99.90
25668;DHT22;18003;-33.830;151.202;2023-06-26T12:41:17;13.00;99.90
25668;DHT22;18003;-33.830;151.202;2023-06-26T12:43:48;12.90;99.90
25668;DHT22;18003;-33.830;151.202;2023-06-26T12:46:18;12.90;99.90
25668;DHT22;18003;-33.830;151.202;2023-06-26T12:48:48;12.90;99.90
25668;DHT22;18003;-33.830;151.202;2023-06-26T12:51:19;12.90;99.90
25668;DHT22;18003;-33.830;151.202;2023-06-26T12:53:49;12.90;99.90
25668;DHT22;18003;-33.830;151.202;2023-06-26T12:56:19;12.90;99.90
25668;DHT22;18003;-33.830;151.202;2023-06-26T12:58:48;12.90;99.90
25668;DHT22;18003;-33.830;151.202;2023-06-26T13:01:18;13.00;99.90
25668;DHT22;18003;-33.830;151.202;2023-06-26T13:03:48;12.90;99.90
25668;DHT22;18003;-33.830;151.202;2023-06-26T13:06:19;12.90;99.90
25668;DHT22;18003;-33.830;151.202;2023-06-26T13:08:48;12.90;99.90
25668;DHT22;18003;-33.830;151.202;2023-06-26T13:11:18;12.90;99.90
25668;DHT22;18003;-33.830;151.202;2023-06-26T13:13:49;12.90;99.90
25668;DHT22;18003;-33.830;151.202;2023-06-26T13:16:18;13.00;99.90
25668;DHT22;18003;-33.830;151.202;2023-06-26T13:18:48;12.90;99.90
25668;DHT22;18003;-33.830;151.202;2023-06-26T13:21:18;13.80;99.90
25668;DHT22;18003;-33.830;151.202;2023-06-26T13:23:48;13.20;99.90
25668;DHT22;18003;-33.830;151.202;2023-06-26T13:26:18;12.90;99.90
25668;DHT22;18003;-33.830;151.202;2023-06-26T13:28:49;12.90;99.90
25668;DHT22;18003;-33.830;151.202;2023-06-26T13:31:19;12.90;99.90
25668;DHT22;18003;-33.830;151.202;2023-06-26T13:33:49;12.90;99.90
25668;DHT22;18003;-33.830;151.202;2023-06-26T13:36:21;12.90;99.90
25668;DHT22;18003;-33.830;151.202;2023-06-26T13:38:51;12.90;99.90
25668;DHT22;18003;-33.830;151.202;2023-06-26T13:41:22;12.90;99.90
25668;DHT22;18003;-33.830;151.202;2023-06-26T13:43:52;12.90;99.90
25668;DHT22;18003;-33.830;151.202;2023-06-26T13:46:22;13.00;99.90
25668;DHT22;18003;-33.830;151.202;2023-06-26T13:48:52;13.00;99.90
25668;DHT22;18003;-33.830;151.202;2023-06-26T13:51:22;13.00;99.90
25668;DHT22;18003;-33.830;151.202;2023-06-26T13:53:53;13.00;99.90
25668;DHT22;18003;-33.830;151.202;2023-06-26T13:56:23;13.00;99.90
25668;DHT22;18003;-33.830;151.202;2023-06-26T13:58:54;13.00;99.90
25668;DHT22;18003;-33.830;151.202;2023-06-26T14:01:24;13.00;99.90
25668;DHT22;18003;-33.830;151.202;2023-06-26T14:03:54;13.00;99.90
25668;DHT22;18003;-33.830;151.202;2023-06-26T14:06:24;13.00;99.90
25668;DHT22;18003;-33.830;151.202;2023-06-26T14:08:54;13.00;99.90
25668;DHT22;18003;-33.830;151.202;2023-06-26T14:11:24;13.00;99.90
25668;DHT22;18003;-33.830;151.202;2023-06-26T14:13:55;13.00;99.90
25668;DHT22;18003;-33.830;151.202;2023-06-26T14:16:25;13.00;99.90
25668;DHT22;18003;-33.830;151.202;2023-06-26T14:18:56;13.00;99.90
25668;DHT22;18003;-33.830;151.202;2023-06-26T14:21:26;13.00;99.90
25668;DHT22;18003;-33.830;151.202;2023-06-26T14:23:56;13.10;99.90
25668;DHT22;18003;-33.830;151.202;2023-06-26T14:26:26;13.00;99.90
25668;DHT22;18003;-33.830;151.202;2023-06-26T14:28:57;13.10;99.90
25668;DHT22;18003;-33.830;151.202;2023-06-26T14:31:27;13.10;99.90
25668;DHT22;18003;-33.830;151.202;2023-06-26T14:33:57;13.10;99.90
25668;DHT22;18003;-33.830;151.202;2023-06-26T14:36:27;13.10;99.90
25668;DHT22;18003;-33.830;151.202;2023-06-26T14:38:58;13.10;99.90
25668;DHT22;18003;-33.830;151.202;2023-06-26T14:41:29;13.20;99.90
25668;DHT22;18003;-33.830;151.202;2023-06-26T14:43:59;13.20;99.90
25668;DHT22;18003;-33.830;151.202;2023-06-26T14:46:29;13.20;99.90
25668;DHT22;18003;-33.830;151.202;2023-06-26T14:48:59;13.20;99.90
25668;DHT22;18003;-33.830;151.202;2023-06-26T14:51:29;13.30;99.90
25668;DHT22;18003;-33.830;151.202;2023-06-26T14:53:59;13.30;99.90
25668;DHT22;18003;-33.830;151.202;2023-06-26T14:56:30;13.40;99.90
25668;DHT22;18003;-33.830;151.202;2023-06-26T14:59:00;13.30;99.90
25668;DHT22;18003;-33.830;151.202;2023-06-26T15:01:30;12.70;99.90
25668;DHT22;18003;-33.830;151.202;2023-06-26T15:04:00;13.40;99.90
25668;DHT22;18003;-33.830;151.202;2023-06-26T15:06:30;13.30;99.90
25668;DHT22;18003;-33.830;151.202;2023-06-26T15:09:00;13.40;99.90
25668;DHT22;18003;-33.830;151.202;2023-06-26T15:11:30;13.30;99.90
25668;DHT22;18003;-33.830;151.202;2023-06-26T15:14:00;13.40;99.90
25668;DHT22;18003;-33.830;151.202;2023-06-26T15:16:30;13.40;99.90
25668;DHT22;18003;-33.830;151.202;2023-06-26T15:19:00;13.40;99.90
25668;DHT22;18003;-33.830;151.202;2023-06-26T15:21:31;13.40;99.90
25668;DHT22;18003;-33.830;151.202;2023-06-26T15:24:00;13.40;99.90